Time;durP1;ratioP1;P1;durP2;ratioP2;P2;SDS_P1;SDS_P2;PMS_P1;PMS_P2;Temp;Humidity;BMP_temperature;BMP_pressure;BME280_temperature;BME280_humidity;BME280_pressure;Samples;Min_cycle;Max_cycle;Signal;HPM_P1;HPM_P2
2022/02/28 00:01:23;;;;;;;21.52;14.43;;;;;;;0.06;100.00;97626.63;4956646;28;20449;-54
2022/02/28 00:03:52;;;;;;;17.95;13.23;;;;;;;-0.03;100.00;97614.84;4951006;28;20063;-53
2022/02/28 00:06:21;;;;;;;23.27;14.90;;;;;;;-0.05;100.00;97615.78;4967834;28;20100;-50
2022/02/28 00:08:49;;;;;;;23.40;15.40;;;;;;;0.03;100.00;97611.19;4973027;28;20069;-50
2022/02/28 00:11:18;;;;;;;23.50;14.35;;;;;;;0.06;100.00;97613.66;4955466;28;20089;-53
2022/02/28 00:13:47;;;;;;;24.60;14.75;;;;;;;0.05;100.00;97606.78;4984870;28;21725;-51
2022/02/28 00:16:15;;;;;;;23.27;14.38;;;;;;;-0.06;100.00;97608.91;4957600;28;20075;-49
2022/02/28 00:18:45;;;;;;;20.15;14.02;;;;;;;-0.07;100.00;97600.28;4959897;28;20074;-48
2022/02/28 00:21:13;;;;;;;20.92;14.85;;;;;;;-0.03;100.00;97603.63;4958013;28;20074;-52
2022/02/28 00:23:42;;;;;;;23.63;14.75;;;;;;;-0.03;100.00;97601.88;4955551;28;20116;-51
2022/02/28 00:26:10;;;;;;;19.35;14.15;;;;;;;-0.03;100.00;97601.03;4956778;28;20079;-52
2022/02/28 00:28:39;;;;;;;21.30;14.05;;;;;;;-0.05;100.00;97605.41;4975417;28;20070;-50
2022/02/28 00:31:07;;;;;;;21.05;14.38;;;;;;;-0.04;100.00;97602.75;4959348;28;20062;-51
2022/02/28 00:33:36;;;;;;;21.45;14.38;;;;;;;-0.09;100.00;97603.81;4972506;28;20533;-52
2022/02/28 00:36:06;;;;;;;19.42;14.07;;;;;;;-0.01;100.00;97597.47;4979962;28;20566;-48
2022/02/28 00:38:37;;;;;;;22.85;14.88;;;;;;;-0.08;100.00;97593.38;4968331;28;20074;-52
2022/02/28 00:41:05;;;;;;;19.88;14.25;;;;;;;-0.03;100.00;97594.09;4967452;28;20482;-49
2022/02/28 00:43:34;;;;;;;21.70;13.60;;;;;;;-0.06;100.00;97588.16;4977332;28;20072;-49
2022/02/28 00:46:03;;;;;;;21.23;13.48;;;;;;;-0.11;100.00;97595.25;4979334;28;20170;-50
2022/02/28 00:48:31;;;;;;;21.00;13.93;;;;;;;-0.06;100.00;97596.78;4974216;28;20097;-49
2022/02/28 00:51:00;;;;;;;21.15;13.45;;;;;;;-0.08;100.00;97592.53;4966353;28;20082;-49
2022/02/28 00:53:31;;;;;;;19.75;14.05;;;;;;;-0.12;100.00;97591.81;4958905;28;20081;-54
2022/02/28 00:55:59;;;;;;;22.48;14.65;;;;;;;-0.13;100.00;97587.53;4955727;28;20091;-50
2022/02/28 00:58:29;;;;;;;21.23;14.98;;;;;;;-0.15;100.00;97586.72;4952178;28;20097;-50
2022/02/28 01:00:58;;;;;;;21.95;14.20;;;;;;;-0.14;100.00;97582.38;4953427;28;20093;-52
2022/02/28 01:03:27;;;;;;;20.42;14.20;;;;;;;-0.16;100.00;97579.00;4952699;28;20075;-50
2022/02/28 01:05:56;;;;;;;23.67;15.02;;;;;;;-0.22;100.00;97581.78;4961405;28;20079;-49
2022/02/28 01:08:24;;;;;;;19.35;14.10;;;;;;;-0.27;100.00;97577.63;4980989;28;20078;-48
2022/02/28 01:10:54;;;;;;;22.38;14.55;;;;;;;-0.20;100.00;97572.22;4956519;28;20087;-55
2022/02/28 01:13:22;;;;;;;20.27;14.70;;;;;;;-0.25;100.00;97573.22;4974023;28;20548;-57
2022/02/28 01:15:51;;;;;;;22.85;14.63;;;;;;;-0.22;100.00;97568.84;4969054;28;20078;-51
2022/02/28 01:18:19;;;;;;;19.63;14.10;;;;;;;-0.22;100.00;97571.41;4964147;28;20070;-51
2022/02/28 01:20:51;;;;;;;20.92;14.43;;;;;;;-0.23;100.00;97569.75;4972443;28;20070;-49
2022/02/28 01:23:19;;;;;;;22.98;14.18;;;;;;;-0.29;100.00;97570.78;4982546;28;20050;-52
2022/02/28 01:25:50;;;;;;;21.38;14.13;;;;;;;-0.35;100.00;97570.97;4974814;28;20487;-52
2022/02/28 01:28:20;;;;;;;23.00;14.10;;;;;;;-0.41;100.00;97565.97;4995539;28;20548;-50
2022/02/28 01:30:49;;;;;;;20.23;14.13;;;;;;;-0.35;100.00;97564.03;4979224;28;20077;-52
2022/02/28 01:33:17;;;;;;;18.08;13.63;;;;;;;-0.39;100.00;97564.19;4973515;28;20082;-54
2022/02/28 01:35:46;;;;;;;21.02;13.88;;;;;;;-0.34;100.00;97564.91;4968693;28;20073;-53
2022/02/28 01:38:14;;;;;;;24.15;14.93;;;;;;;-0.36;100.00;97562.34;4982286;28;20114;-54
2022/02/28 01:40:43;;;;;;;19.48;14.13;;;;;;;-0.29;100.00;97563.00;4966629;28;20081;-51
2022/02/28 01:43:11;;;;;;;20.67;13.90;;;;;;;-0.33;100.00;97559.66;4970391;28;20078;-53
2022/02/28 01:45:41;;;;;;;21.38;14.00;;;;;;;-0.39;100.00;97564.19;4979914;28;20058;-54
2022/02/28 01:48:10;;;;;;;20.75;13.73;;;;;;;-0.47;100.00;97561.03;4975972;28;20078;-54
2022/02/28 01:50:38;;;;;;;25.25;14.77;;;;;;;-0.65;100.00;97565.91;4983927;28;20065;-52
2022/02/28 01:53:07;;;;;;;20.92;14.57;;;;;;;-0.72;100.00;97557.47;4977110;28;20082;-49
2022/02/28 01:55:35;;;;;;;20.23;14.07;;;;;;;-0.72;100.00;97565.25;4980071;28;20089;-50
2022/02/28 01:58:04;;;;;;;19.02;13.68;;;;;;;-0.67;100.00;97557.31;4978654;28;20066;-50
2022/02/28 02:00:34;;;;;;;19.85;13.82;;;;;;;-0.76;100.00;97566.25;4978711;28;20074;-51
2022/02/28 02:03:05;;;;;;;23.52;14.63;;;;;;;-0.76;100.00;97562.78;4976043;28;20479;-50
2022/02/28 02:05:34;;;;;;;;;;;;;;;-0.87;100.00;97576.06;4958630;28;20067;-51
2022/02/28 02:08:06;;;;;;;19.02;14.07;;;;;;;-0.81;100.00;97573.28;4976495;28;19976;-50
2022/02/28 02:10:34;;;;;;;18.63;13.68;;;;;;;-0.90;100.00;97573.56;4967362;28;20066;-49
2022/02/28 02:13:05;;;;;;;21.85;14.27;;;;;;;-0.90;100.00;97580.50;4954641;28;20074;-53
2022/02/28 02:15:34;;;;;;;21.17;14.35;;;;;;;-0.92;100.00;97574.53;4969450;28;20069;-51
2022/02/28 02:18:04;;;;;;;20.83;13.27;;;;;;;-1.05;100.00;97579.22;4978510;28;20066;-50
2022/02/28 02:20:36;;;;;;;22.13;14.20;;;;;;;-1.09;100.00;97583.66;4971069;28;20070;-52
2022/02/28 02:23:07;;;;;;;18.92;14.43;;;;;;;-1.03;100.00;97586.06;4978686;28;20082;-53
2022/02/28 02:25:36;;;;;;;23.02;14.20;;;;;;;-1.08;100.00;97585.31;4965851;28;20533;-55
2022/02/28 02:28:06;;;;;;;17.70;12.82;;;;;;;-1.08;100.00;97595.69;4951713;28;20062;-56
2022/02/28 02:30:35;;;;;;;20.00;13.25;;;;;;;-1.06;100.00;97598.25;4969166;28;20061;-49
2022/02/28 02:33:04;;;;;;;21.05;14.35;;;;;;;-1.03;100.00;97598.16;4973478;28;20426;-56
2022/02/28 02:35:34;;;;;;;25.27;14.15;;;;;;;-1.06;100.00;97593.06;4983252;28;21937;-46
2022/02/28 02:38:03;;;;;;;20.73;14.88;;;;;;;-1.07;100.00;97591.34;4959117;28;20082;-51
2022/02/28 02:40:31;;;;;;;19.00;14.27;;;;;;;-1.09;100.00;97593.16;4975868;28;20080;-49
2022/02/28 02:43:00;;;;;;;27.65;14.18;;;;;;;-1.06;100.00;97591.31;4964329;28;20063;-52
2022/02/28 02:45:28;;;;;;;24.08;14.63;;;;;;;-1.07;100.00;97593.94;4959288;28;20085;-48
2022/02/28 02:47:56;;;;;;;21.48;14.52;;;;;;;-1.10;100.00;97594.03;4952734;28;20750;-49
2022/02/28 02:50:25;;;;;;;19.70;14.02;;;;;;;-1.06;100.00;97593.06;4957751;28;20093;-51
2022/02/28 02:52:55;;;;;;;19.83;14.98;;;;;;;-1.06;100.00;97593.06;4977748;28;20092;-51
2022/02/28 02:55:23;;;;;;;19.67;14.80;;;;;;;-1.04;100.00;97581.75;4975763;28;20124;-54
2022/02/28 02:57:52;;;;;;;22.95;15.73;;;;;;;-1.06;100.00;97578.38;4979970;28;20552;-51
2022/02/28 03:00:20;;;;;;;21.55;14.32;;;;;;;-1.09;100.00;97588.81;4977694;28;20585;-52
2022/02/28 03:02:48;;;;;;;18.80;12.25;;;;;;;-1.08;100.00;97590.50;4972730;28;20070;-48
2022/02/28 03:05:17;;;;;;;20.98;15.50;;;;;;;-0.97;100.00;97585.00;4981821;28;20152;-50
2022/02/28 03:07:46;;;;;;;20.30;14.63;;;;;;;-0.98;100.00;97591.94;4959953;28;20521;-53
2022/02/28 03:10:16;;;;;;;21.95;14.15;;;;;;;-0.99;100.00;97598.00;4969126;28;20066;-49
2022/02/28 03:12:44;;;;;;;24.30;15.40;;;;;;;-1.01;100.00;97598.94;4984783;28;20070;-53
2022/02/28 03:15:13;;;;;;;20.08;14.30;;;;;;;-1.02;100.00;97599.84;4974653;28;20131;-49
2022/02/28 03:17:41;;;;;;;21.33;14.25;;;;;;;-1.03;100.00;97600.75;4973850;28;20100;-49
2022/02/28 03:20:11;;;;;;;21.65;14.65;;;;;;;-1.03;100.00;97600.75;4961231;28;20094;-48
2022/02/28 03:22:40;;;;;;;21.65;14.43;;;;;;;-1.11;100.00;97598.34;4953592;28;20081;-50
2022/02/28 03:25:09;;;;;;;20.13;14.15;;;;;;;-1.11;100.00;97597.50;4971334;28;20541;-48
2022/02/28 03:27:39;;;;;;;22.27;14.05;;;;;;;-1.16;100.00;97605.44;4968952;28;20474;-50
2022/02/28 03:30:09;;;;;;;19.10;13.93;;;;;;;-1.12;100.00;97598.41;4963557;28;20059;-54
2022/02/28 03:32:38;;;;;;;21.42;14.32;;;;;;;-1.11;100.00;97607.88;4951835;28;20083;-51
2022/02/28 03:35:08;;;;;;;22.38;15.63;;;;;;;-1.12;100.00;97603.59;4956823;28;20551;-55
2022/02/28 03:37:37;;;;;;;22.73;15.38;;;;;;;-1.14;100.00;97603.63;4957747;28;20067;-48
2022/02/28 03:40:06;;;;;;;22.60;14.80;;;;;;;-1.18;100.00;97608.94;4967089;28;20043;-48
2022/02/28 03:42:35;;;;;;;20.88;14.23;;;;;;;-1.21;100.00;97602.94;4965094;28;20063;-48
2022/02/28 03:45:06;;;;;;;22.67;14.70;;;;;;;-1.25;100.00;97606.53;4956776;28;20066;-49
2022/02/28 03:47:35;;;;;;;23.63;15.38;;;;;;;-1.24;100.00;97608.25;4965455;28;20074;-48
2022/02/28 03:50:04;;;;;;;20.88;13.77;;;;;;;-1.25;100.00;97609.09;4975827;28;20086;-50
2022/02/28 03:52:34;;;;;;;20.55;14.82;;;;;;;-1.31;100.00;97609.31;4984018;28;20547;-48
2022/02/28 03:55:03;;;;;;;21.20;14.43;;;;;;;-1.39;100.00;97607.81;4964612;28;20070;-47
2022/02/28 03:57:31;;;;;;;23.10;14.25;;;;;;;-1.41;100.00;97607.88;4961206;28;20070;-51
2022/02/28 04:00:00;;;;;;;18.33;13.50;;;;;;;-1.36;100.00;97605.16;4976932;28;20070;-48
2022/02/28 04:02:29;;;;;;;21.85;15.10;;;;;;;-1.37;100.00;97608.63;4974974;28;20077;-48
2022/02/28 04:04:58;;;;;;;22.70;13.70;;;;;;;-1.47;100.00;97601.13;4972708;28;20082;-52
2022/02/28 04:07:27;;;;;;;19.63;14.27;;;;;;;-1.51;100.00;97601.25;4983263;28;20488;-56
2022/02/28 04:09:55;;;;;;;21.02;14.57;;;;;;;-1.52;100.00;97602.97;4960221;28;20081;-50
2022/02/28 04:12:23;;;;;;;22.25;14.98;;;;;;;-1.57;100.00;97594.50;4967524;28;20120;-48
2022/02/28 04:14:52;;;;;;;21.30;15.32;;;;;;;-1.63;100.00;97599.00;4980512;28;20061;-51
2022/02/28 04:17:20;;;;;;;25.48;15.20;;;;;;;-1.67;100.00;97606.00;4980456;28;20672;-53
2022/02/28 04:19:50;;;;;;;19.80;14.85;;;;;;;-1.63;100.00;97612.78;4955595;28;20543;-50
2022/02/28 04:22:19;;;;;;;22.35;15.05;;;;;;;-1.65;100.00;97603.34;4956737;28;20555;-53
2022/02/28 04:24:47;;;;;;;22.27;15.55;;;;;;;-1.67;100.00;97603.41;4960031;28;20074;-49
2022/02/28 04:27:15;;;;;;;21.48;14.52;;;;;;;-1.69;100.00;97600.88;4965631;28;20200;-49
2022/02/28 04:29:45;;;;;;;23.60;15.05;;;;;;;-1.71;100.00;97607.81;4953226;28;20066;-48
2022/02/28 04:32:14;;;;;;;22.00;14.43;;;;;;;-1.73;100.00;97603.56;4957390;28;20097;-52
2022/02/28 04:34:42;;;;;;;24.05;14.25;;;;;;;-1.77;100.00;97602.81;4976357;28;20437;-48
2022/02/28 04:37:12;;;;;;;21.10;14.48;;;;;;;-1.80;100.00;97609.78;4957055;28;20067;-51
2022/02/28 04:39:40;;;;;;;24.42;15.70;;;;;;;-1.73;100.00;97608.72;4954500;28;20078;-52
2022/02/28 04:42:09;;;;;;;22.67;14.98;;;;;;;-1.76;100.00;97603.66;4954282;28;20070;-48
2022/02/28 04:44:37;;;;;;;23.02;15.52;;;;;;;-1.78;100.00;97610.59;4953114;28;20074;-48
2022/02/28 04:47:07;;;;;;;21.45;14.68;;;;;;;-1.79;100.00;97607.19;4964456;28;20498;-51
2022/02/28 04:49:35;;;;;;;26.03;16.63;;;;;;;-1.76;100.00;97606.22;4959042;28;20071;-51
2022/02/28 04:52:05;;;;;;;30.38;16.55;;;;;;;-1.72;100.00;97602.66;4962288;28;20509;-54
2022/02/28 04:54:34;;;;;;;23.02;15.55;;;;;;;-1.73;100.00;97607.00;4965994;28;20073;-47
2022/02/28 04:57:04;;;;;;;24.58;16.33;;;;;;;-1.75;100.00;97603.63;4969640;28;20520;-55
2022/02/28 04:59:33;;;;;;;26.38;15.45;;;;;;;-1.74;100.00;97613.06;4977098;28;20086;-49
2022/02/28 05:02:02;;;;;;;20.60;15.00;;;;;;;-1.73;100.00;97609.56;4982596;28;20528;-52
2022/02/28 05:04:31;;;;;;;23.20;15.40;;;;;;;-1.69;100.00;97605.16;4977313;28;20066;-50
2022/02/28 05:06:59;;;;;;;20.67;13.82;;;;;;;-1.67;100.00;97611.16;4981529;28;20066;-49
2022/02/28 05:09:28;;;;;;;24.95;15.93;;;;;;;-1.60;100.00;97604.09;4968394;28;20063;-48
2022/02/28 05:11:59;;;;;;;22.17;15.32;;;;;;;-1.64;100.00;97612.81;4952149;28;20526;-51
2022/02/28 05:14:27;;;;;;;21.95;14.98;;;;;;;-1.76;100.00;97612.25;4954810;28;20079;-52
2022/02/28 05:16:55;;;;;;;22.42;14.98;;;;;;;-1.90;100.00;97614.34;4959046;28;20094;-53
2022/02/28 05:19:24;;;;;;;21.38;14.13;;;;;;;-2.10;100.00;97611.44;4972866;28;20066;-48
2022/02/28 05:21:53;;;;;;;22.35;14.98;;;;;;;-2.26;100.00;97611.81;4983787;28;20051;-49
2022/02/28 05:24:21;;;;;;;23.98;14.45;;;;;;;-2.39;100.00;97610.41;4975965;28;20078;-50
2022/02/28 05:26:49;;;;;;;21.52;14.65;;;;;;;-2.47;100.00;97618.34;4977630;28;20540;-50
2022/02/28 05:29:19;;;;;;;21.85;14.40;;;;;;;-2.51;100.00;97616.75;4978885;28;20112;-51
2022/02/28 05:31:48;;;;;;;23.95;15.15;;;;;;;-2.54;100.00;97618.53;4977132;28;20074;-49
2022/02/28 05:34:16;;;;;;;23.83;15.48;;;;;;;-2.59;100.00;97610.88;4972737;28;20074;-48
2022/02/28 05:36:49;;;;;;;21.95;15.00;;;;;;;-2.61;100.00;97611.84;4969816;28;20066;-52
2022/02/28 05:39:18;;;;;;;24.17;14.35;;;;;;;-2.59;100.00;97610.03;4955808;28;20085;-51
2022/02/28 05:41:46;;;;;;;23.25;16.20;;;;;;;-2.53;100.00;97615.91;4954240;28;20079;-50
2022/02/28 05:44:15;;;;;;;29.15;16.50;;;;;;;-2.54;100.00;97616.81;4960201;28;20078;-52
2022/02/28 05:46:45;;;;;;;32.38;15.43;;;;;;;-2.52;100.00;97627.09;4979045;28;20066;-48
2022/02/28 05:49:13;;;;;;;24.17;15.52;;;;;;;-2.54;100.00;97623.72;4984284;28;20074;-54
2022/02/28 05:51:42;;;;;;;23.55;15.48;;;;;;;-2.54;100.00;97627.13;4968196;28;20062;-50
2022/02/28 05:54:10;;;;;;;24.60;15.40;;;;;;;-2.52;100.00;97629.66;4961112;28;20078;-54
2022/02/28 05:56:39;;;;;;;29.88;15.88;;;;;;;-2.49;100.00;97627.03;4982282;28;20077;-48
2022/02/28 05:59:07;;;;;;;22.80;14.63;;;;;;;-2.46;100.00;97637.28;4958801;28;20062;-51
2022/02/28 06:01:37;;;;;;;26.38;15.45;;;;;;;-2.46;100.00;97634.69;4980817;28;20072;-53
2022/02/28 06:04:07;;;;;;;21.92;15.02;;;;;;;-2.51;100.00;97639.09;4979483;28;20147;-50
2022/02/28 06:06:36;;;;;;;24.63;15.40;;;;;;;-2.55;100.00;97628.00;4976208;28;20085;-51
2022/02/28 06:09:04;;;;;;;22.30;14.63;;;;;;;-2.50;100.00;97635.66;4968952;28;20058;-48
2022/02/28 06:11:33;;;;;;;25.52;15.02;;;;;;;-2.48;100.00;97636.47;4955702;28;20073;-51
2022/02/28 06:14:01;;;;;;;22.33;14.75;;;;;;;-2.46;100.00;97642.44;4955113;28;20090;-50
2022/02/28 06:16:30;;;;;;;20.98;15.23;;;;;;;-2.45;100.00;97644.13;4984968;28;20070;-49
2022/02/28 06:18:58;;;;;;;23.73;15.65;;;;;;;-2.38;100.00;97640.53;4977440;28;20066;-48
2022/02/28 06:21:28;;;;;;;24.75;15.77;;;;;;;-2.34;100.00;97643.88;4971451;28;20086;-49
2022/02/28 06:23:56;;;;;;;21.85;15.38;;;;;;;-2.26;100.00;97640.25;4962603;28;20069;-50
2022/02/28 06:26:25;;;;;;;24.88;15.05;;;;;;;-2.13;100.00;97647.69;4959050;28;20074;-50
2022/02/28 06:28:53;;;;;;;25.73;15.93;;;;;;;-2.03;100.00;97646.56;4980286;28;20078;-53
2022/02/28 06:31:22;;;;;;;26.40;16.88;;;;;;;-1.94;100.00;97647.19;4976602;28;20089;-48
2022/02/28 06:33:51;;;;;;;26.08;16.60;;;;;;;-1.83;100.00;97652.06;4959282;28;20078;-51
2022/02/28 06:36:19;;;;;;;28.63;16.40;;;;;;;-1.73;100.00;97658.72;4955478;28;20058;-51
2022/02/28 06:38:49;;;;;;;28.13;16.13;;;;;;;-1.63;100.00;97656.75;4956260;28;20074;-50
2022/02/28 06:41:17;;;;;;;27.13;16.05;;;;;;;-1.58;100.00;97661.78;4960895;28;20120;-51
2022/02/28 06:43:46;;;;;;;23.73;15.05;;;;;;;-1.50;100.00;97663.28;4963306;28;20070;-50
2022/02/28 06:46:14;;;;;;;25.05;16.17;;;;;;;-1.44;100.00;97659.69;4957843;28;20643;-51
2022/02/28 06:48:43;;;;;;;24.13;15.00;;;;;;;-1.40;100.00;97661.31;4959101;28;20684;-51
2022/02/28 06:51:14;;;;;;;29.40;15.05;;;;;;;-1.33;100.00;97664.56;4963626;28;20093;-51
2022/02/28 06:53:43;;;;;;;24.17;15.32;;;;;;;-1.25;100.00;97662.63;4955680;28;20078;-49
2022/02/28 06:56:12;;;;;;;22.38;15.68;;;;;;;-1.14;100.00;97668.31;4956705;28;20082;-52
2022/02/28 06:58:41;;;;;;;25.08;16.30;;;;;;;-1.01;100.00;97661.91;4973534;28;20074;-54
2022/02/28 07:01:11;;;;;;;23.63;16.30;;;;;;;-0.88;100.00;97670.19;4958337;28;20066;-54
2022/02/28 07:03:40;;;;;;;;;;;;;;;-0.74;100.00;97672.38;4956383;28;20055;-49
2022/02/28 07:06:09;;;;;;;27.45;15.90;;;;;;;-0.60;100.00;97669.38;4967067;28;19960;-50
2022/02/28 07:08:38;;;;;;;21.50;15.30;;;;;;;-0.42;100.00;97665.34;4974635;28;20093;-48
2022/02/28 07:11:07;;;;;;;23.52;15.55;;;;;;;-0.26;100.00;97672.59;4967829;28;20074;-53
2022/02/28 07:13:37;;;;;;;21.52;14.68;;;;;;;-0.12;100.00;97663.56;4973337;28;20081;-50
2022/02/28 07:16:06;;;;;;;27.77;16.08;;;;;;;0.00;100.00;97660.56;4976164;28;20674;-49
2022/02/28 07:18:34;;;;;;;20.85;14.60;;;;;;;0.17;100.00;97663.47;4983193;28;20065;-47
2022/02/28 07:21:03;;;;;;;22.27;15.73;;;;;;;0.27;100.00;97663.97;4975225;28;20084;-57
2022/02/28 07:23:31;;;;;;;22.35;15.27;;;;;;;0.45;100.00;97665.97;4978735;28;20085;-51
2022/02/28 07:26:00;;;;;;;24.13;16.10;;;;;;;0.54;100.00;97669.13;4981231;28;20086;-52
2022/02/28 07:28:28;;;;;;;23.15;15.20;;;;;;;0.68;100.00;97667.72;4956616;28;20442;-50
2022/02/28 07:30:59;;;;;;;23.70;15.55;;;;;;;0.86;100.00;97666.25;4958250;28;20633;-48
2022/02/28 07:33:28;;;;;;;21.00;14.30;;;;;;;0.98;100.00;97664.94;4968813;28;20073;-50
2022/02/28 07:35:56;;;;;;;22.60;14.80;;;;;;;1.06;100.00;97673.28;4975233;28;20082;-50
2022/02/28 07:38:25;;;;;;;21.48;14.52;;;;;;;1.22;100.00;97670.16;4974243;28;20093;-53
2022/02/28 07:40:53;;;;;;;22.60;15.10;;;;;;;1.33;100.00;97670.59;4960594;28;20564;-52
2022/02/28 07:43:21;;;;;;;23.88;15.27;;;;;;;1.51;100.00;97682.03;4957259;28;20071;-48
2022/02/28 07:45:50;;;;;;;23.55;14.98;;;;;;;1.64;100.00;97675.44;4969465;28;20070;-53
2022/02/28 07:48:20;;;;;;;19.42;14.20;;;;;;;1.73;100.00;97682.06;4966856;28;20067;-56
2022/02/28 07:50:48;;;;;;;21.13;14.43;;;;;;;1.85;100.00;97681.56;4960200;28;20078;-49
2022/02/28 07:53:16;;;;;;;20.45;13.82;;;;;;;1.84;100.00;97679.88;4977307;28;20087;-55
2022/02/28 07:55:47;;;;;;;21.10;15.00;;;;;;;1.90;100.00;97684.84;4949158;28;20524;-49
2022/02/28 07:58:15;;;;;;;22.55;14.57;;;;;;;1.96;100.00;97683.72;4955166;28;20450;-54
2022/02/28 08:00:44;;;;;;;19.30;13.98;;;;;;;2.13;100.00;97681.28;4953803;28;20696;-50
2022/02/28 08:03:13;;;;;;;21.75;14.65;;;;;;;2.11;100.00;97683.97;4955818;28;20066;-52
2022/02/28 08:05:43;;;;;;;20.33;14.07;;;;;;;2.13;100.00;97689.97;4954789;28;20128;-52
2022/02/28 08:08:11;;;;;;;20.00;14.07;;;;;;;2.33;100.00;97693.50;4958191;28;20089;-51
2022/02/28 08:10:40;;;;;;;19.25;14.63;;;;;;;2.51;100.00;97690.13;4952953;28;20078;-54
2022/02/28 08:13:11;;;;;;;22.13;14.52;;;;;;;2.60;100.00;97694.94;4958395;28;20071;-50
2022/02/28 08:15:40;;;;;;;21.27;14.43;;;;;;;2.75;100.00;97687.38;4963170;28;20069;-54
2022/02/28 08:18:09;;;;;;;20.77;14.27;;;;;;;2.92;100.00;97689.25;4983855;28;20070;-49
2022/02/28 08:20:38;;;;;;;22.20;14.50;;;;;;;3.03;100.00;97687.88;4974321;28;20082;-51
2022/02/28 08:23:08;;;;;;;20.33;14.18;;;;;;;3.09;100.00;97684.97;4978744;28;20081;-52
2022/02/28 08:25:36;;;;;;;20.48;14.63;;;;;;;3.12;100.00;97686.63;4978353;28;20210;-50
2022/02/28 08:28:05;;;;;;;19.90;13.93;;;;;;;3.23;100.00;97680.91;4974870;28;20062;-53
2022/02/28 08:30:33;;;;;;;21.30;14.43;;;;;;;3.12;100.00;97685.78;4973982;28;20071;-49
2022/02/28 08:33:04;;;;;;;20.45;14.65;;;;;;;3.19;100.00;97684.59;4978095;28;20066;-50
2022/02/28 08:35:32;;;;;;;23.40;15.27;;;;;;;3.20;100.00;97683.66;4955220;28;20473;-48
2022/02/28 08:38:01;;;;;;;21.73;13.50;;;;;;;3.11;100.00;97679.72;4984939;28;20090;-51
2022/02/28 08:40:30;;;;;;;24.83;14.50;;;;;;;3.22;100.00;97681.84;4978277;28;20548;-48
2022/02/28 08:42:59;;;;;;;21.60;14.73;;;;;;;3.12;100.00;97678.78;4976094;28;20053;-49
2022/02/28 08:45:27;;;;;;;22.00;14.30;;;;;;;3.28;100.00;97678.97;4964551;28;20070;-48
2022/02/28 08:47:56;;;;;;;20.95;14.80;;;;;;;3.47;100.00;97685.00;4959368;28;20066;-55
2022/02/28 08:50:24;;;;;;;20.63;14.18;;;;;;;3.63;100.00;97679.94;4951876;28;20094;-54
2022/02/28 08:52:53;;;;;;;24.27;14.85;;;;;;;3.90;100.00;97675.19;4980410;28;20082;-51
2022/02/28 08:55:21;;;;;;;21.30;14.85;;;;;;;3.89;100.00;97681.34;4974742;28;20074;-49
2022/02/28 08:57:51;;;;;;;21.67;15.73;;;;;;;3.62;100.00;97693.06;4975763;28;20074;-49
2022/02/28 09:00:20;;;;;;;23.33;15.85;;;;;;;3.95;100.00;97674.94;4966703;28;20066;-52
2022/02/28 09:02:48;;;;;;;22.25;15.43;;;;;;;3.81;100.00;97688.66;4951404;28;20089;-51
2022/02/28 09:05:17;;;;;;;23.85;15.60;;;;;;;4.08;100.00;97686.50;4958694;28;20082;-56
2022/02/28 09:07:46;;;;;;;22.90;15.60;;;;;;;4.40;100.00;97681.44;4970753;28;20085;-53
2022/02/28 09:10:15;;;;;;;24.42;15.10;;;;;;;4.53;100.00;97672.09;4957706;28;20318;-54
2022/02/28 09:12:43;;;;;;;24.95;15.38;;;;;;;4.77;100.00;97672.59;4968184;28;20050;-56
2022/02/28 09:15:13;;;;;;;22.75;15.48;;;;;;;4.94;100.00;97677.81;4981520;28;20073;-55
2022/02/28 09:17:41;;;;;;;21.27;15.13;;;;;;;4.84;100.00;97673.13;4969822;28;20085;-53
2022/02/28 09:20:11;;;;;;;23.25;15.27;;;;;;;4.76;100.00;97681.38;4960106;28;20079;-56
2022/02/28 09:22:40;;;;;;;21.27;14.90;;;;;;;4.67;100.00;97674.84;4954304;28;20090;-52
2022/02/28 09:25:10;;;;;;;21.00;15.00;;;;;;;4.84;100.00;97679.19;4951818;28;20094;-51
2022/02/28 09:27:39;;;;;;;19.70;14.45;;;;;;;4.84;100.00;97679.19;4971393;28;20062;-57
2022/02/28 09:30:21;;;;;;;21.90;15.50;;;;;;;5.19;100.00;97672.13;4976461;28;20043;-49
2022/02/28 09:32:51;;;;;;;21.02;14.75;;;;;;;5.18;100.00;97674.81;4971871;28;20079;-51
2022/02/28 09:35:19;;;;;;;20.43;14.93;;;;;;;5.52;100.00;97678.25;4959530;28;20131;-55
2022/02/28 09:37:48;;;;;;;23.60;16.25;;;;;;;5.65;100.00;97671.44;4954923;28;20576;-49
2022/02/28 09:40:16;;;;;;;23.83;15.68;;;;;;;5.54;100.00;97672.03;4973769;28;20469;-51
2022/02/28 09:42:46;;;;;;;22.45;15.50;;;;;;;5.73;100.00;97666.59;4964150;28;20079;-47
2022/02/28 09:45:17;;;;;;;19.40;14.55;;;;;;;5.67;100.00;97673.00;4955998;28;20077;-52
2022/02/28 09:47:47;;;;;;;22.50;15.35;;;;;;;5.78;100.00;97675.06;4959285;28;20545;-55
2022/02/28 09:50:16;;;;;;;20.17;15.10;;;;;;;5.65;100.00;97677.50;4964639;28;20090;-54
2022/02/28 09:52:44;;;;;;;22.23;14.75;;;;;;;5.81;100.00;97674.88;4954164;28;20694;-48
2022/02/28 09:55:14;;;;;;;20.67;14.43;;;;;;;5.59;100.00;97674.38;4957931;28;20071;-51
2022/02/28 09:57:46;;;;;;;26.27;15.90;;;;;;;5.69;100.00;97667.72;4965879;28;20081;-56
2022/02/28 10:00:18;;;;;;;20.35;14.10;;;;;;;5.45;100.00;97672.50;4984203;28;20074;-51
2022/02/28 10:02:49;;;;;;;21.38;15.30;;;;;;;5.91;100.00;97665.56;4973498;28;20047;-51
2022/02/28 10:05:18;;;;;;;20.15;14.85;;;;;;;6.09;100.00;97662.88;4958253;28;20086;-49
2022/02/28 10:07:50;;;;;;;24.27;15.90;;;;;;;6.09;100.00;97658.50;4956689;28;20489;-50
2022/02/28 10:10:18;;;;;;;24.55;14.60;;;;;;;5.91;100.00;97651.66;4973477;28;20085;-48
2022/02/28 10:12:48;;;;;;;31.27;21.67;;;;;;;5.96;99.72;97661.91;4977966;28;20062;-56
2022/02/28 10:15:19;;;;;;;20.65;14.32;;;;;;;6.27;100.00;97661.84;4972349;28;20079;-48
2022/02/28 10:17:50;;;;;;;23.70;14.57;;;;;;;6.22;99.86;97655.16;4959456;28;20063;-51
2022/02/28 10:20:21;;;;;;;20.05;13.50;;;;;;;6.35;91.54;97659.63;4955135;28;20081;-50
2022/02/28 10:22:54;;;;;;;27.85;14.40;;;;;;;6.66;88.00;97655.19;4960549;28;21549;-50
2022/02/28 10:25:32;;;;;;;24.48;14.13;;;;;;;6.69;86.19;97660.25;4980337;28;20107;-54
2022/02/28 10:28:25;;;;;;;19.67;14.15;;;;;;;6.84;87.32;97656.72;4960939;28;20081;-50
2022/02/28 10:30:56;;;;;;;18.48;13.88;;;;;;;6.63;78.63;97658.00;4964229;28;20453;-58
2022/02/28 10:33:31;;;;;;;18.80;12.88;;;;;;;6.70;77.97;97666.34;4976845;28;20536;-53
2022/02/28 10:36:13;;;;;;;22.00;13.73;;;;;;;6.60;81.08;97659.00;4952843;28;20071;-54
2022/02/28 10:38:44;;;;;;;18.60;13.75;;;;;;;6.73;76.92;97655.69;4955403;28;20089;-52
2022/02/28 10:41:23;;;;;;;17.77;13.35;;;;;;;6.63;71.79;97650.13;4961453;28;20093;-55
2022/02/28 10:43:54;;;;;;;20.67;14.45;;;;;;;6.36;72.20;97647.34;4976183;28;20311;-54
2022/02/28 10:46:23;;;;;;;;;;;;;;;6.38;70.71;97653.34;4986176;28;20739;-55
2022/02/28 10:49:07;;;;;;;18.13;12.90;;;;;;;6.50;68.94;97643.94;4973955;28;20061;-54
2022/02/28 10:51:47;;;;;;;18.48;12.63;;;;;;;6.60;67.91;97653.78;4969156;28;20063;-52
2022/02/28 10:54:20;;;;;;;19.10;12.45;;;;;;;6.57;67.87;97645.25;4962135;28;20522;-50
2022/02/28 10:56:58;;;;;;;19.38;13.10;;;;;;;6.67;65.90;97646.38;4958234;28;20455;-57
2022/02/28 10:59:29;;;;;;;19.15;13.20;;;;;;;6.75;59.73;97646.78;4977751;28;20132;-48
2022/02/28 11:02:00;;;;;;;17.30;12.60;;;;;;;6.71;64.80;97650.53;4979978;28;20094;-50
2022/02/28 11:04:35;;;;;;;19.40;13.70;;;;;;;6.83;67.21;97643.72;4983778;28;20528;-50
2022/02/28 11:07:05;;;;;;;16.00;12.68;;;;;;;6.84;64.19;97651.47;4958514;28;20553;-52
2022/02/28 11:09:37;;;;;;;19.60;12.70;;;;;;;7.09;60.77;97642.16;4959660;28;20542;-50
2022/02/28 11:12:19;;;;;;;17.25;13.32;;;;;;;6.79;65.65;97642.22;4965724;28;20060;-52
2022/02/28 11:14:48;;;;;;;17.08;12.45;;;;;;;7.21;63.04;97638.75;4966435;28;20074;-49
2022/02/28 11:17:18;;;;;;;19.30;12.57;;;;;;;7.34;59.18;97638.84;4957167;28;20781;-48
2022/02/28 11:19:50;;;;;;;17.90;12.27;;;;;;;7.10;61.40;97636.78;4976128;28;20134;-48
2022/02/28 11:22:39;;;;;;;17.02;12.77;;;;;;;7.13;60.54;97630.53;4953995;28;20058;-51
2022/02/28 11:25:10;;;;;;;16.80;12.25;;;;;;;7.10;59.09;97631.53;4956346;28;20067;-54